sensor_id;sensor_type;location;lat;lon;timestamp;P1;durP1;ratioP1;P2;durP2;ratioP2
1991;SDS011;997;48.448;8.924;2022-12-24T04:03:13;1.73;;;1.30;;
1991;SDS011;997;48.448;8.924;2022-12-24T04:05:39;2.23;;;1.40;;
1991;SDS011;997;48.448;8.924;2022-12-24T04:08:04;5.83;;;1.50;;
1991;SDS011;997;48.448;8.924;2022-12-24T04:10:30;4.00;;;1.63;;
1991;SDS011;997;48.448;8.924;2022-12-24T04:12:56;1.90;;;1.80;;
1991;SDS011;997;48.448;8.924;2022-12-24T04:15:21;3.57;;;1.67;;
1991;SDS011;997;48.448;8.924;2022-12-24T04:17:47;2.00;;;1.73;;
1991;SDS011;997;48.448;8.924;2022-12-24T04:20:13;4.17;;;1.83;;
1991;SDS011;997;48.448;8.924;2022-12-24T04:22:38;5.17;;;1.20;;
1991;SDS011;997;48.448;8.924;2022-12-24T04:25:05;6.17;;;2.10;;
1991;SDS011;997;48.448;8.924;2022-12-24T04:27:31;2.70;;;1.80;;
1991;SDS011;997;48.448;8.924;2022-12-24T04:29:56;2.23;;;1.30;;
1991;SDS011;997;48.448;8.924;2022-12-24T04:32:24;3.03;;;1.77;;
1991;SDS011;997;48.448;8.924;2022-12-24T04:34:50;8.27;;;2.33;;
1991;SDS011;997;48.448;8.924;2022-12-24T04:37:16;3.20;;;1.60;;
1991;SDS011;997;48.448;8.924;2022-12-24T04:39:42;3.17;;;2.87;;
1991;SDS011;997;48.448;8.924;2022-12-24T04:42:07;2.13;;;1.40;;
1991;SDS011;997;48.448;8.924;2022-12-24T04:44:33;3.63;;;1.70;;
1991;SDS011;997;48.448;8.924;2022-12-24T04:46:58;8.93;;;5.10;;
1991;SDS011;997;48.448;8.924;2022-12-24T04:49:24;4.93;;;2.53;;
1991;SDS011;997;48.448;8.924;2022-12-24T04:51:50;1.87;;;1.53;;
1991;SDS011;997;48.448;8.924;2022-12-24T04:54:15;5.50;;;1.87;;
1991;SDS011;997;48.448;8.924;2022-12-24T04:56:41;6.00;;;1.77;;
1991;SDS011;997;48.448;8.924;2022-12-24T04:59:07;1.97;;;1.67;;
1991;SDS011;997;48.448;8.924;2022-12-24T05:01:32;3.47;;;1.83;;
1991;SDS011;997;48.448;8.924;2022-12-24T05:03:58;6.13;;;1.70;;
1991;SDS011;997;48.448;8.924;2022-12-24T05:06:25;3.70;;;1.60;;
1991;SDS011;997;48.448;8.924;2022-12-24T05:08:54;7.13;;;1.57;;
1991;SDS011;997;48.448;8.924;2022-12-24T05:11:21;5.40;;;1.90;;
1991;SDS011;997;48.448;8.924;2022-12-24T05:13:47;9.83;;;1.73;;
1991;SDS011;997;48.448;8.924;2022-12-24T05:16:13;4.77;;;2.20;;
1991;SDS011;997;48.448;8.924;2022-12-24T05:18:41;4.53;;;1.80;;
1991;SDS011;997;48.448;8.924;2022-12-24T05:21:11;5.00;;;3.00;;
1991;SDS011;997;48.448;8.924;2022-12-24T05:23:39;4.10;;;1.70;;
1991;SDS011;997;48.448;8.924;2022-12-24T05:26:56;8.53;;;2.13;;
1991;SDS011;997;48.448;8.924;2022-12-24T05:29:21;6.40;;;1.90;;
1991;SDS011;997;48.448;8.924;2022-12-24T05:31:47;7.43;;;3.10;;
1991;SDS011;997;48.448;8.924;2022-12-24T05:34:14;2.43;;;2.23;;
1991;SDS011;997;48.448;8.924;2022-12-24T05:36:42;9.00;;;4.40;;
1991;SDS011;997;48.448;8.924;2022-12-24T05:39:10;2.83;;;2.00;;
1991;SDS011;997;48.448;8.924;2022-12-24T05:41:41;2.50;;;1.73;;
1991;SDS011;997;48.448;8.924;2022-12-24T05:44:07;4.27;;;2.40;;
1991;SDS011;997;48.448;8.924;2022-12-24T05:46:33;5.83;;;2.53;;
1991;SDS011;997;48.448;8.924;2022-12-24T05:48:58;3.87;;;2.10;;
1991;SDS011;997;48.448;8.924;2022-12-24T05:51:24;5.43;;;2.30;;
1991;SDS011;997;48.448;8.924;2022-12-24T05:53:50;4.70;;;2.20;;
1991;SDS011;997;48.448;8.924;2022-12-24T05:56:17;3.90;;;1.90;;
1991;SDS011;997;48.448;8.924;2022-12-24T05:58:44;3.83;;;1.83;;
1991;SDS011;997;48.448;8.924;2022-12-24T06:01:10;2.47;;;1.60;;
1991;SDS011;997;48.448;8.924;2022-12-24T06:03:37;4.20;;;1.53;;
1991;SDS011;997;48.448;8.924;2022-12-24T06:06:07;4.87;;;2.23;;
1991;SDS011;997;48.448;8.924;2022-12-24T06:08:34;3.70;;;1.90;;
1991;SDS011;997;48.448;8.924;2022-12-24T06:11:02;5.10;;;1.80;;
1991;SDS011;997;48.448;8.924;2022-12-24T06:13:30;3.63;;;1.53;;
1991;SDS011;997;48.448;8.924;2022-12-24T06:15:56;2.33;;;1.80;;
1991;SDS011;997;48.448;8.924;2022-12-24T06:18:23;5.30;;;2.23;;
1991;SDS011;997;48.448;8.924;2022-12-24T06:20:52;4.00;;;3.43;;
1991;SDS011;997;48.448;8.924;2022-12-24T06:23:19;3.20;;;2.30;;
1991;SDS011;997;48.448;8.924;2022-12-24T06:25:46;3.10;;;2.30;;
1991;SDS011;997;48.448;8.924;2022-12-24T06:28:12;4.80;;;2.67;;
1991;SDS011;997;48.448;8.924;2022-12-24T06:30:38;4.00;;;1.80;;
1991;SDS011;997;48.448;8.924;2022-12-24T06:33:04;4.97;;;2.30;;
1991;SDS011;997;48.448;8.924;2022-12-24T06:35:30;6.00;;;2.07;;
1991;SDS011;997;48.448;8.924;2022-12-24T06:37:57;6.50;;;2.13;;
1991;SDS011;997;48.448;8.924;2022-12-24T06:40:24;4.40;;;2.17;;
1991;SDS011;997;48.448;8.924;2022-12-24T06:42:50;6.07;;;2.20;;
1991;SDS011;997;48.448;8.924;2022-12-24T06:45:16;4.53;;;1.67;;
1991;SDS011;997;48.448;8.924;2022-12-24T06:47:42;9.23;;;3.10;;
1991;SDS011;997;48.448;8.924;2022-12-24T06:50:08;7.23;;;2.30;;
1991;SDS011;997;48.448;8.924;2022-12-24T06:52:34;6.47;;;2.30;;
1991;SDS011;997;48.448;8.924;2022-12-24T06:55:00;6.23;;;2.90;;
1991;SDS011;997;48.448;8.924;2022-12-24T06:57:26;4.73;;;2.27;;
1991;SDS011;997;48.448;8.924;2022-12-24T06:59:52;3.03;;;2.70;;
1991;SDS011;997;48.448;8.924;2022-12-24T07:02:18;4.70;;;2.47;;
1991;SDS011;997;48.448;8.924;2022-12-24T07:04:43;8.27;;;3.03;;
1991;SDS011;997;48.448;8.924;2022-12-24T07:07:09;3.33;;;1.80;;
1991;SDS011;997;48.448;8.924;2022-12-24T07:09:35;6.07;;;2.20;;
1991;SDS011;997;48.448;8.924;2022-12-24T07:12:00;5.00;;;2.80;;
1991;SDS011;997;48.448;8.924;2022-12-24T07:14:26;4.40;;;2.43;;
1991;SDS011;997;48.448;8.924;2022-12-24T07:16:51;5.73;;;2.50;;
1991;SDS011;997;48.448;8.924;2022-12-24T07:19:17;3.73;;;2.03;;
1991;SDS011;997;48.448;8.924;2022-12-24T07:21:43;3.10;;;1.90;;
1991;SDS011;997;48.448;8.924;2022-12-24T07:24:08;3.63;;;2.00;;
1991;SDS011;997;48.448;8.924;2022-12-24T07:26:34;5.77;;;2.50;;
1991;SDS011;997;48.448;8.924;2022-12-24T07:29:00;4.50;;;2.27;;
1991;SDS011;997;48.448;8.924;2022-12-24T07:31:25;1.93;;;1.80;;
1991;SDS011;997;48.448;8.924;2022-12-24T07:33:51;2.30;;;2.00;;
1991;SDS011;997;48.448;8.924;2022-12-24T07:36:18;9.03;;;2.47;;
1991;SDS011;997;48.448;8.924;2022-12-24T07:38:45;4.30;;;2.73;;
1991;SDS011;997;48.448;8.924;2022-12-24T07:41:11;6.47;;;2.40;;
1991;SDS011;997;48.448;8.924;2022-12-24T07:43:37;5.37;;;2.60;;
1991;SDS011;997;48.448;8.924;2022-12-24T07:46:03;6.50;;;3.33;;
1991;SDS011;997;48.448;8.924;2022-12-24T07:48:29;5.93;;;2.93;;
1991;SDS011;997;48.448;8.924;2022-12-24T07:50:56;3.90;;;2.00;;
1991;SDS011;997;48.448;8.924;2022-12-24T07:53:22;7.97;;;2.37;;
1991;SDS011;997;48.448;8.924;2022-12-24T07:55:49;2.70;;;1.87;;
1991;SDS011;997;48.448;8.924;2022-12-24T07:58:14;4.90;;;2.37;;
1991;SDS011;997;48.448;8.924;2022-12-24T08:00:40;4.30;;;2.93;;
1991;SDS011;997;48.448;8.924;2022-12-24T08:03:06;9.93;;;2.77;;
1991;SDS011;997;48.448;8.924;2022-12-24T08:05:32;6.80;;;2.70;;
1991;SDS011;997;48.448;8.924;2022-12-24T08:07:59;3.83;;;2.20;;
1991;SDS011;997;48.448;8.924;2022-12-24T08:10:25;7.00;;;3.20;;
1991;SDS011;997;48.448;8.924;2022-12-24T08:12:51;3.27;;;2.73;;
1991;SDS011;997;48.448;8.924;2022-12-24T08:15:17;5.50;;;2.57;;
1991;SDS011;997;48.448;8.924;2022-12-24T08:17:43;9.57;;;4.03;;
1991;SDS011;997;48.448;8.924;2022-12-24T08:20:09;6.50;;;3.13;;
1991;SDS011;997;48.448;8.924;2022-12-24T08:22:35;8.70;;;3.47;;
1991;SDS011;997;48.448;8.924;2022-12-24T08:25:00;8.80;;;3.53;;
1991;SDS011;997;48.448;8.924;2022-12-24T08:27:26;3.70;;;2.30;;
1991;SDS011;997;48.448;8.924;2022-12-24T08:29:52;4.20;;;2.20;;
1991;SDS011;997;48.448;8.924;2022-12-24T08:32:17;9.37;;;2.87;;
1991;SDS011;997;48.448;8.924;2022-12-24T08:34:43;8.77;;;2.33;;
1991;SDS011;997;48.448;8.924;2022-12-24T08:37:09;6.73;;;2.10;;
1991;SDS011;997;48.448;8.924;2022-12-24T08:39:34;7.93;;;3.17;;
1991;SDS011;997;48.448;8.924;2022-12-24T08:42:00;9.33;;;3.00;;
1991;SDS011;997;48.448;8.924;2022-12-24T08:44:26;5.93;;;3.43;;
1991;SDS011;997;48.448;8.924;2022-12-24T08:46:51;10.63;;;2.20;;
1991;SDS011;997;48.448;8.924;2022-12-24T08:49:17;13.30;;;2.70;;
1991;SDS011;997;48.448;8.924;2022-12-24T08:51:43;5.47;;;2.43;;
1991;SDS011;997;48.448;8.924;2022-12-24T08:54:08;6.97;;;2.60;;
1991;SDS011;997;48.448;8.924;2022-12-24T08:56:34;6.33;;;2.80;;
1991;SDS011;997;48.448;8.924;2022-12-24T08:59:00;4.50;;;2.00;;
1991;SDS011;997;48.448;8.924;2022-12-24T09:01:26;8.20;;;3.23;;
1991;SDS011;997;48.448;8.924;2022-12-24T09:03:51;8.97;;;2.80;;
1991;SDS011;997;48.448;8.924;2022-12-24T09:06:17;9.77;;;2.67;;
1991;SDS011;997;48.448;8.924;2022-12-24T09:08:43;8.23;;;3.63;;
1991;SDS011;997;48.448;8.924;2022-12-24T09:11:13;5.20;;;2.17;;
1991;SDS011;997;48.448;8.924;2022-12-24T09:13:40;7.10;;;3.13;;
1991;SDS011;997;48.448;8.924;2022-12-24T09:16:07;5.40;;;2.90;;
1991;SDS011;997;48.448;8.924;2022-12-24T09:18:33;6.57;;;3.00;;
1991;SDS011;997;48.448;8.924;2022-12-24T09:21:03;8.20;;;3.50;;
1991;SDS011;997;48.448;8.924;2022-12-24T09:23:30;4.60;;;3.77;;
1991;SDS011;997;48.448;8.924;2022-12-24T09:25:58;6.30;;;3.17;;
1991;SDS011;997;48.448;8.924;2022-12-24T09:28:24;3.27;;;2.97;;
1991;SDS011;997;48.448;8.924;2022-12-24T09:30:57;4.90;;;3.93;;
1991;SDS011;997;48.448;8.924;2022-12-24T09:33:24;4.33;;;2.93;;
1991;SDS011;997;48.448;8.924;2022-12-24T09:35:51;3.47;;;1.87;;
1991;SDS011;997;48.448;8.924;2022-12-24T09:38:17;9.20;;;4.80;;
1991;SDS011;997;48.448;8.924;2022-12-24T09:40:43;6.30;;;3.27;;
1991;SDS011;997;48.448;8.924;2022-12-24T09:43:17;4.20;;;3.57;;
1991;SDS011;997;48.448;8.924;2022-12-24T09:48:29;3.37;;;2.80;;
1991;SDS011;997;48.448;8.924;2022-12-24T09:50:59;6.10;;;2.43;;
1991;SDS011;997;48.448;8.924;2022-12-24T09:53:32;9.70;;;2.60;;
1991;SDS011;997;48.448;8.924;2022-12-24T09:56:03;6.40;;;2.47;;
1991;SDS011;997;48.448;8.924;2022-12-24T09:59:00;4.77;;;1.93;;
1991;SDS011;997;48.448;8.924;2022-12-24T10:01:31;4.20;;;2.80;;
1991;SDS011;997;48.448;8.924;2022-12-24T10:04:31;5.97;;;2.37;;
1991;SDS011;997;48.448;8.924;2022-12-24T10:06:53;7.83;;;2.87;;
1991;SDS011;997;48.448;8.924;2022-12-24T10:20:41;7.27;;;2.30;;
1991;SDS011;997;48.448;8.924;2022-12-24T10:31:06;5.50;;;3.43;;
1991;SDS011;997;48.448;8.924;2022-12-24T10:33:35;7.47;;;3.60;;
1991;SDS011;997;48.448;8.924;2022-12-24T10:36:06;6.50;;;3.83;;
1991;SDS011;997;48.448;8.924;2022-12-24T10:38:44;7.90;;;3.90;;
1991;SDS011;997;48.448;8.924;2022-12-24T10:41:10;11.57;;;2.67;;
1991;SDS011;997;48.448;8.924;2022-12-24T10:43:37;4.50;;;2.80;;
1991;SDS011;997;48.448;8.924;2022-12-24T10:46:16;7.50;;;2.77;;
1991;SDS011;997;48.448;8.924;2022-12-24T10:49:03;5.30;;;2.87;;
1991;SDS011;997;48.448;8.924;2022-12-24T10:56:47;6.10;;;2.70;;
1991;SDS011;997;48.448;8.924;2022-12-24T11:02:09;10.47;;;5.77;;
1991;SDS011;997;48.448;8.924;2022-12-24T11:04:51;7.73;;;6.10;;
1991;SDS011;997;48.448;8.924;2022-12-24T11:07:18;8.63;;;7.10;;
1991;SDS011;997;48.448;8.924;2022-12-24T11:10:02;9.23;;;4.00;;
1991;SDS011;997;48.448;8.924;2022-12-24T11:12:31;6.90;;;6.17;;
1991;SDS011;997;48.448;8.924;2022-12-24T11:15:33;10.40;;;4.13;;
1991;SDS011;997;48.448;8.924;2022-12-24T11:17:59;7.80;;;5.33;;
1991;SDS011;997;48.448;8.924;2022-12-24T11:20:29;8.10;;;6.60;;
1991;SDS011;997;48.448;8.924;2022-12-24T11:22:56;12.57;;;6.93;;
1991;SDS011;997;48.448;8.924;2022-12-24T11:27:54;11.13;;;6.20;;
1991;SDS011;997;48.448;8.924;2022-12-24T11:30:27;8.67;;;4.60;;
1991;SDS011;997;48.448;8.924;2022-12-24T11:35:25;12.00;;;5.20;;
1991;SDS011;997;48.448;8.924;2022-12-24T11:40:29;8.43;;;4.93;;
1991;SDS011;997;48.448;8.924;2022-12-24T11:43:06;7.47;;;3.70;;
1991;SDS011;997;48.448;8.924;2022-12-24T11:45:46;6.87;;;4.30;;
1991;SDS011;997;48.448;8.924;2022-12-24T11:48:26;5.40;;;3.43;;
1991;SDS011;997;48.448;8.924;2022-12-24T11:51:04;2.87;;;2.23;;
1991;SDS011;997;48.448;8.924;2022-12-24T11:53:40;9.30;;;3.90;;
1991;SDS011;997;48.448;8.924;2022-12-24T11:59:32;5.53;;;2.20;;
1991;SDS011;997;48.448;8.924;2022-12-24T12:02:14;10.30;;;2.93;;
1991;SDS011;997;48.448;8.924;2022-12-24T12:04:58;9.00;;;3.70;;
1991;SDS011;997;48.448;8.924;2022-12-24T12:07:29;5.67;;;3.37;;
1991;SDS011;997;48.448;8.924;2022-12-24T12:15:38;3.83;;;3.10;;
1991;SDS011;997;48.448;8.924;2022-12-24T12:18:15;6.53;;;3.90;;
1991;SDS011;997;48.448;8.924;2022-12-24T12:20:53;7.33;;;3.80;;
1991;SDS011;997;48.448;8.924;2022-12-24T12:23:26;5.77;;;4.07;;
1991;SDS011;997;48.448;8.924;2022-12-24T12:31:31;6.37;;;5.87;;
1991;SDS011;997;48.448;8.924;2022-12-24T12:34:06;8.07;;;2.70;;
1991;SDS011;997;48.448;8.924;2022-12-24T12:39:24;6.03;;;3.10;;
1991;SDS011;997;48.448;8.924;2022-12-24T12:58:27;2.47;;;1.90;;
1991;SDS011;997;48.448;8.924;2022-12-24T13:00:54;7.00;;;2.77;;
1991;SDS011;997;48.448;8.924;2022-12-24T13:06:20;3.90;;;1.67;;
1991;SDS011;997;48.448;8.924;2022-12-24T13:12:02;5.23;;;2.37;;
1991;SDS011;997;48.448;8.924;2022-12-24T13:20:23;6.27;;;2.73;;
1991;SDS011;997;48.448;8.924;2022-12-24T13:22:55;11.77;;;2.97;;
1991;SDS011;997;48.448;8.924;2022-12-24T13:25:42;5.77;;;2.43;;
1991;SDS011;997;48.448;8.924;2022-12-24T13:28:52;5.53;;;2.03;;
1991;SDS011;997;48.448;8.924;2022-12-24T13:36:10;5.73;;;3.73;;
1991;SDS011;997;48.448;8.924;2022-12-24T13:38:43;3.00;;;1.77;;
1991;SDS011;997;48.448;8.924;2022-12-24T13:49:11;9.67;;;8.53;;
1991;SDS011;997;48.448;8.924;2022-12-24T13:54:36;5.57;;;5.00;;
1991;SDS011;997;48.448;8.924;2022-12-24T13:57:22;7.37;;;4.43;;
1991;SDS011;997;48.448;8.924;2022-12-24T13:59:55;6.83;;;5.07;;
1991;SDS011;997;48.448;8.924;2022-12-24T14:02:33;17.30;;;13.77;;
1991;SDS011;997;48.448;8.924;2022-12-24T14:05:04;5.30;;;4.80;;
1991;SDS011;997;48.448;8.924;2022-12-24T14:07:33;30.30;;;26.57;;
1991;SDS011;997;48.448;8.924;2022-12-24T14:10:00;6.93;;;3.77;;
1991;SDS011;997;48.448;8.924;2022-12-24T14:12:31;5.27;;;2.17;;
1991;SDS011;997;48.448;8.924;2022-12-24T14:18:21;5.37;;;2.57;;
1991;SDS011;997;48.448;8.924;2022-12-24T14:20:49;10.83;;;9.60;;
1991;SDS011;997;48.448;8.924;2022-12-24T14:24:02;4.50;;;2.87;;
1991;SDS011;997;48.448;8.924;2022-12-24T14:26:07;5.70;;;4.70;;
1991;SDS011;997;48.448;8.924;2022-12-24T14:28:57;5.23;;;2.67;;
1991;SDS011;997;48.448;8.924;2022-12-24T14:31:24;5.80;;;2.30;;
1991;SDS011;997;48.448;8.924;2022-12-24T14:33:49;7.43;;;3.87;;
1991;SDS011;997;48.448;8.924;2022-12-24T14:36:18;9.00;;;4.40;;
1991;SDS011;997;48.448;8.924;2022-12-24T14:38:47;7.10;;;3.60;;
1991;SDS011;997;48.448;8.924;2022-12-24T14:41:23;3.63;;;2.83;;
1991;SDS011;997;48.448;8.924;2022-12-24T14:47:17;6.47;;;3.50;;
1991;SDS011;997;48.448;8.924;2022-12-24T14:55:44;17.30;;;9.00;;
1991;SDS011;997;48.448;8.924;2022-12-24T15:00:50;6.57;;;5.03;;
1991;SDS011;997;48.448;8.924;2022-12-24T15:03:17;5.67;;;3.30;;
1991;SDS011;997;48.448;8.924;2022-12-24T15:05:45;5.67;;;3.43;;
1991;SDS011;997;48.448;8.924;2022-12-24T15:08:17;3.23;;;2.13;;
1991;SDS011;997;48.448;8.924;2022-12-24T15:10:49;8.70;;;3.20;;
1991;SDS011;997;48.448;8.924;2022-12-24T15:13:36;7.53;;;3.10;;
1991;SDS011;997;48.448;8.924;2022-12-24T15:16:06;3.40;;;2.00;;
1991;SDS011;997;48.448;8.924;2022-12-24T15:18:34;4.03;;;2.50;;
1991;SDS011;997;48.448;8.924;2022-12-24T15:21:16;6.10;;;2.73;;
1991;SDS011;997;48.448;8.924;2022-12-24T15:23:50;5.90;;;2.70;;
1991;SDS011;997;48.448;8.924;2022-12-24T15:26:27;5.70;;;2.77;;
1991;SDS011;997;48.448;8.924;2022-12-24T15:28:59;11.20;;;8.30;;
1991;SDS011;997;48.448;8.924;2022-12-24T15:31:25;5.77;;;5.27;;
1991;SDS011;997;48.448;8.924;2022-12-24T15:33:53;9.17;;;8.37;;
1991;SDS011;997;48.448;8.924;2022-12-24T15:36:33;4.03;;;3.63;;
1991;SDS011;997;48.448;8.924;2022-12-24T15:39:04;8.73;;;3.33;;
1991;SDS011;997;48.448;8.924;2022-12-24T15:41:36;4.60;;;3.30;;
1991;SDS011;997;48.448;8.924;2022-12-24T15:44:24;6.80;;;5.47;;
1991;SDS011;997;48.448;8.924;2022-12-24T15:46:50;5.90;;;3.63;;
1991;SDS011;997;48.448;8.924;2022-12-24T15:49:22;11.80;;;10.67;;
1991;SDS011;997;48.448;8.924;2022-12-24T15:51:50;9.43;;;8.43;;
1991;SDS011;997;48.448;8.924;2022-12-24T15:54:18;9.13;;;8.43;;
1991;SDS011;997;48.448;8.924;2022-12-24T15:56:45;11.60;;;10.23;;
1991;SDS011;997;48.448;8.924;2022-12-24T16:01:43;16.00;;;14.60;;
1991;SDS011;997;48.448;8.924;2022-12-24T16:04:14;19.37;;;13.37;;
1991;SDS011;997;48.448;8.924;2022-12-24T16:06:58;3.63;;;3.30;;
1991;SDS011;997;48.448;8.924;2022-12-24T16:09:44;7.30;;;6.60;;
1991;SDS011;997;48.448;8.924;2022-12-24T16:12:17;14.73;;;13.30;;
1991;SDS011;997;48.448;8.924;2022-12-24T16:15:11;8.33;;;7.63;;
1991;SDS011;997;48.448;8.924;2022-12-24T16:17:38;5.70;;;5.20;;
1991;SDS011;997;48.448;8.924;2022-12-24T16:20:05;4.10;;;3.70;;
1991;SDS011;997;48.448;8.924;2022-12-24T16:22:53;4.90;;;4.50;;
1991;SDS011;997;48.448;8.924;2022-12-24T16:25:29;5.60;;;4.33;;
1991;SDS011;997;48.448;8.924;2022-12-24T16:27:55;2.30;;;2.00;;
1991;SDS011;997;48.448;8.924;2022-12-24T16:30:20;2.87;;;2.13;;
1991;SDS011;997;48.448;8.924;2022-12-24T16:32:47;5.30;;;3.33;;
1991;SDS011;997;48.448;8.924;2022-12-24T16:35:20;5.07;;;4.00;;
1991;SDS011;997;48.448;8.924;2022-12-24T16:37:52;6.43;;;5.83;;
1991;SDS011;997;48.448;8.924;2022-12-24T16:40:18;4.53;;;4.13;;
1991;SDS011;997;48.448;8.924;2022-12-24T16:42:44;6.03;;;4.63;;
1991;SDS011;997;48.448;8.924;2022-12-24T16:45:28;7.40;;;5.57;;
1991;SDS011;997;48.448;8.924;2022-12-24T16:47:57;15.60;;;14.27;;
1991;SDS011;997;48.448;8.924;2022-12-24T16:50:23;6.90;;;5.87;;
1991;SDS011;997;48.448;8.924;2022-12-24T16:52:49;8.67;;;5.20;;
1991;SDS011;997;48.448;8.924;2022-12-24T16:55:15;8.93;;;7.60;;
1991;SDS011;997;48.448;8.924;2022-12-24T16:57:41;9.13;;;8.20;;
1991;SDS011;997;48.448;8.924;2022-12-24T17:00:17;9.83;;;8.70;;
1991;SDS011;997;48.448;8.924;2022-12-24T17:02:45;13.23;;;9.27;;
1991;SDS011;997;48.448;8.924;2022-12-24T17:05:11;11.73;;;10.67;;
1991;SDS011;997;48.448;8.924;2022-12-24T17:07:37;6.37;;;5.87;;
1991;SDS011;997;48.448;8.924;2022-12-24T17:10:03;7.90;;;7.40;;
1991;SDS011;997;48.448;8.924;2022-12-24T17:12:30;26.83;;;24.03;;
1991;SDS011;997;48.448;8.924;2022-12-24T17:14:55;54.60;;;34.07;;
1991;SDS011;997;48.448;8.924;2022-12-24T17:17:22;10.67;;;9.33;;
1991;SDS011;997;48.448;8.924;2022-12-24T17:19:50;32.87;;;19.93;;
1991;SDS011;997;48.448;8.924;2022-12-24T17:22:16;15.23;;;11.53;;
1991;SDS011;997;48.448;8.924;2022-12-24T17:24:42;7.97;;;7.10;;
1991;SDS011;997;48.448;8.924;2022-12-24T17:27:07;9.70;;;5.50;;
1991;SDS011;997;48.448;8.924;2022-12-24T17:29:33;4.53;;;3.50;;
1991;SDS011;997;48.448;8.924;2022-12-24T17:31:59;4.23;;;3.87;;
1991;SDS011;997;48.448;8.924;2022-12-24T17:34:25;3.97;;;3.70;;
1991;SDS011;997;48.448;8.924;2022-12-24T17:36:50;5.43;;;4.93;;
1991;SDS011;997;48.448;8.924;2022-12-24T17:39:16;5.23;;;4.83;;
1991;SDS011;997;48.448;8.924;2022-12-24T17:41:42;6.40;;;5.90;;
1991;SDS011;997;48.448;8.924;2022-12-24T17:44:13;8.70;;;7.80;;
1991;SDS011;997;48.448;8.924;2022-12-24T17:46:39;9.23;;;7.20;;
1991;SDS011;997;48.448;8.924;2022-12-24T17:49:05;5.90;;;4.90;;
1991;SDS011;997;48.448;8.924;2022-12-24T17:51:30;4.80;;;4.40;;
1991;SDS011;997;48.448;8.924;2022-12-24T17:53:57;6.37;;;5.80;;
1991;SDS011;997;48.448;8.924;2022-12-24T17:56:27;8.10;;;7.50;;
1991;SDS011;997;48.448;8.924;2022-12-24T17:58:53;9.37;;;8.50;;
1991;SDS011;997;48.448;8.924;2022-12-24T18:01:21;7.83;;;7.03;;
1991;SDS011;997;48.448;8.924;2022-12-24T18:03:49;6.87;;;6.27;;
1991;SDS011;997;48.448;8.924;2022-12-24T18:06:16;5.83;;;5.27;;
1991;SDS011;997;48.448;8.924;2022-12-24T18:08:44;11.33;;;8.80;;
1991;SDS011;997;48.448;8.924;2022-12-24T18:13:37;7.73;;;7.10;;
1991;SDS011;997;48.448;8.924;2022-12-24T18:16:12;9.77;;;9.17;;
1991;SDS011;997;48.448;8.924;2022-12-24T18:18:47;9.37;;;8.67;;
1991;SDS011;997;48.448;8.924;2022-12-24T18:21:13;10.73;;;9.90;;
1991;SDS011;997;48.448;8.924;2022-12-24T18:23:41;9.57;;;8.67;;
1991;SDS011;997;48.448;8.924;2022-12-24T18:26:08;20.97;;;19.17;;
1991;SDS011;997;48.448;8.924;2022-12-24T18:28:34;4.63;;;4.23;;
1991;SDS011;997;48.448;8.924;2022-12-24T18:31:02;8.13;;;7.43;;
1991;SDS011;997;48.448;8.924;2022-12-24T18:33:30;6.60;;;6.10;;
1991;SDS011;997;48.448;8.924;2022-12-24T18:35:57;5.17;;;4.70;;
1991;SDS011;997;48.448;8.924;2022-12-24T18:38:23;6.00;;;5.50;;
1991;SDS011;997;48.448;8.924;2022-12-24T18:40:49;9.10;;;8.30;;
1991;SDS011;997;48.448;8.924;2022-12-24T18:43:15;10.77;;;9.80;;
1991;SDS011;997;48.448;8.924;2022-12-24T18:45:41;8.60;;;7.33;;
1991;SDS011;997;48.448;8.924;2022-12-24T18:48:08;7.73;;;6.93;;
1991;SDS011;997;48.448;8.924;2022-12-24T18:50:35;6.03;;;4.93;;
1991;SDS011;997;48.448;8.924;2022-12-24T18:53:01;7.93;;;5.87;;
1991;SDS011;997;48.448;8.924;2022-12-24T18:55:27;5.70;;;5.20;;
1991;SDS011;997;48.448;8.924;2022-12-24T18:57:53;6.10;;;4.33;;
1991;SDS011;997;48.448;8.924;2022-12-24T19:00:19;6.50;;;5.90;;
1991;SDS011;997;48.448;8.924;2022-12-24T19:02:44;5.23;;;4.83;;
1991;SDS011;997;48.448;8.924;2022-12-24T19:05:10;7.67;;;6.97;;
1991;SDS011;997;48.448;8.924;2022-12-24T19:07:39;8.17;;;6.00;;
1991;SDS011;997;48.448;8.924;2022-12-24T19:10:05;5.03;;;4.60;;
1991;SDS011;997;48.448;8.924;2022-12-24T19:12:31;14.53;;;13.03;;
1991;SDS011;997;48.448;8.924;2022-12-24T19:14:57;22.97;;;20.67;;
1991;SDS011;997;48.448;8.924;2022-12-24T19:17:23;13.70;;;12.43;;
1991;SDS011;997;48.448;8.924;2022-12-24T19:19:51;10.07;;;9.27;;
1991;SDS011;997;48.448;8.924;2022-12-24T19:22:17;7.73;;;7.03;;
1991;SDS011;997;48.448;8.924;2022-12-24T19:24:43;11.00;;;10.20;;
1991;SDS011;997;48.448;8.924;2022-12-24T19:27:09;7.93;;;6.93;;
1991;SDS011;997;48.448;8.924;2022-12-24T19:29:34;8.40;;;7.80;;
1991;SDS011;997;48.448;8.924;2022-12-24T19:32:00;8.60;;;8.00;;
1991;SDS011;997;48.448;8.924;2022-12-24T19:34:26;13.53;;;12.40;;
1991;SDS011;997;48.448;8.924;2022-12-24T19:36:52;12.43;;;11.30;;
1991;SDS011;997;48.448;8.924;2022-12-24T19:39:18;20.53;;;18.90;;
1991;SDS011;997;48.448;8.924;2022-12-24T19:41:44;12.23;;;11.13;;
1991;SDS011;997;48.448;8.924;2022-12-24T19:44:09;21.87;;;20.00;;
1991;SDS011;997;48.448;8.924;2022-12-24T19:46:36;14.47;;;13.20;;
1991;SDS011;997;48.448;8.924;2022-12-24T19:49:03;20.77;;;19.23;;
1991;SDS011;997;48.448;8.924;2022-12-24T19:51:30;12.90;;;11.73;;
1991;SDS011;997;48.448;8.924;2022-12-24T19:53:57;11.17;;;10.40;;
1991;SDS011;997;48.448;8.924;2022-12-24T19:56:24;7.70;;;6.60;;
1991;SDS011;997;48.448;8.924;2022-12-24T19:58:51;8.70;;;7.60;;
1991;SDS011;997;48.448;8.924;2022-12-24T20:01:18;6.87;;;6.27;;
1991;SDS011;997;48.448;8.924;2022-12-24T20:03:49;7.60;;;6.90;;
1991;SDS011;997;48.448;8.924;2022-12-24T20:06:16;4.13;;;3.83;;
1991;SDS011;997;48.448;8.924;2022-12-24T20:08:43;6.07;;;5.50;;
1991;SDS011;997;48.448;8.924;2022-12-24T20:11:10;6.20;;;5.60;;
1991;SDS011;997;48.448;8.924;2022-12-24T20:13:38;5.83;;;5.23;;
1991;SDS011;997;48.448;8.924;2022-12-24T20:16:05;6.80;;;5.80;;
1991;SDS011;997;48.448;8.924;2022-12-24T20:18:36;5.77;;;5.27;;
1991;SDS011;997;48.448;8.924;2022-12-24T20:21:02;4.10;;;3.80;;
1991;SDS011;997;48.448;8.924;2022-12-24T20:23:30;14.60;;;9.50;;
1991;SDS011;997;48.448;8.924;2022-12-24T20:25:56;7.23;;;6.53;;
1991;SDS011;997;48.448;8.924;2022-12-24T20:28:26;5.47;;;4.70;;
1991;SDS011;997;48.448;8.924;2022-12-24T20:30:54;3.27;;;2.67;;
1991;SDS011;997;48.448;8.924;2022-12-24T20:33:20;2.83;;;2.63;;
1991;SDS011;997;48.448;8.924;2022-12-24T20:35:46;2.43;;;2.23;;
1991;SDS011;997;48.448;8.924;2022-12-24T20:38:11;2.90;;;1.70;;
1991;SDS011;997;48.448;8.924;2022-12-24T20:40:41;2.00;;;1.83;;
1991;SDS011;997;48.448;8.924;2022-12-24T20:43:08;2.00;;;1.90;;
1991;SDS011;997;48.448;8.924;2022-12-24T20:45:34;3.37;;;2.77;;
1991;SDS011;997;48.448;8.924;2022-12-24T20:48:00;2.33;;;2.13;;
1991;SDS011;997;48.448;8.924;2022-12-24T20:50:26;3.10;;;2.90;;
1991;SDS011;997;48.448;8.924;2022-12-24T20:52:52;2.10;;;1.90;;
1991;SDS011;997;48.448;8.924;2022-12-24T20:55:18;3.40;;;3.10;;
1991;SDS011;997;48.448;8.924;2022-12-24T20:57:48;3.20;;;2.43;;
1991;SDS011;997;48.448;8.924;2022-12-24T21:00:16;2.43;;;2.23;;
1991;SDS011;997;48.448;8.924;2022-12-24T21:02:43;2.67;;;2.10;;
1991;SDS011;997;48.448;8.924;2022-12-24T21:05:09;2.80;;;2.60;;
1991;SDS011;997;48.448;8.924;2022-12-24T21:07:35;2.80;;;2.60;;
1991;SDS011;997;48.448;8.924;2022-12-24T21:10:03;3.70;;;3.40;;
1991;SDS011;997;48.448;8.924;2022-12-24T21:12:33;3.50;;;3.20;;
1991;SDS011;997;48.448;8.924;2022-12-24T21:15:19;4.07;;;2.83;;
1991;SDS011;997;48.448;8.924;2022-12-24T21:17:46;3.37;;;3.10;;
1991;SDS011;997;48.448;8.924;2022-12-24T21:20:12;2.80;;;2.60;;
1991;SDS011;997;48.448;8.924;2022-12-24T21:22:39;4.10;;;3.80;;
1991;SDS011;997;48.448;8.924;2022-12-24T21:25:05;4.70;;;4.23;;
1991;SDS011;997;48.448;8.924;2022-12-24T21:27:31;3.50;;;3.23;;
1991;SDS011;997;48.448;8.924;2022-12-24T21:29:57;6.53;;;3.17;;
1991;SDS011;997;48.448;8.924;2022-12-24T21:32:23;3.20;;;2.90;;
1991;SDS011;997;48.448;8.924;2022-12-24T21:34:49;6.10;;;3.17;;
1991;SDS011;997;48.448;8.924;2022-12-24T21:37:15;5.17;;;4.43;;
1991;SDS011;997;48.448;8.924;2022-12-24T21:39:40;4.20;;;3.83;;